Time;durP1;ratioP1;P1;durP2;ratioP2;P2;SDS_P1;SDS_P2;PMS_P1;PMS_P2;Temp;Humidity;BMP_temperature;BMP_pressure;BME280_temperature;BME280_humidity;BME280_pressure;Samples;Min_cycle;Max_cycle;Signal;HPM_P1;HPM_P2
2023/09/05 00:00:16;;;;;;;3.63;3.33;;;18.40;99.90;;;;;;4974189;28;20798;-71
2023/09/05 00:02:43;;;;;;;4.83;4.20;;;18.50;99.90;;;;;;4976342;28;20440;-71
2023/09/05 00:05:11;;;;;;;8.80;4.10;;;18.50;99.90;;;;;;4961850;28;20426;-72
2023/09/05 00:07:38;;;;;;;4.23;3.83;;;18.40;99.90;;;;;;4962430;28;20438;-72
2023/09/05 00:10:11;;;;;;;4.40;3.87;;;18.50;99.90;;;;;;4976160;28;20442;-72
2023/09/05 00:12:40;;;;;;;4.50;4.10;;;18.40;99.90;;;;;;4973348;28;20486;-71
2023/09/05 00:15:07;;;;;;;6.60;4.70;;;18.40;99.90;;;;;;4978187;28;20418;-72
2023/09/05 00:17:34;;;;;;;4.60;4.30;;;18.40;99.90;;;;;;4971390;28;20437;-71
2023/09/05 00:20:03;;;;;;;5.60;5.10;;;18.40;99.90;;;;;;4972593;28;20472;-71
2023/09/05 00:22:29;;;;;;;5.53;5.07;;;18.40;99.90;;;;;;4956288;28;20426;-71
2023/09/05 00:24:54;;;;;;;8.47;5.93;;;18.30;99.90;;;;;;4971101;28;20515;-70
2023/09/05 00:27:20;;;;;;;6.50;5.87;;;18.40;99.90;;;;;;4974024;28;20186;-72
2023/09/05 00:29:46;;;;;;;7.20;5.90;;;18.30;99.90;;;;;;4970917;28;20566;-71
2023/09/05 00:32:13;;;;;;;5.77;5.20;;;18.30;99.90;;;;;;4970555;28;20207;-70
2023/09/05 00:34:39;;;;;;;5.70;5.20;;;18.30;99.90;;;;;;4993070;28;20440;-70
2023/09/05 00:37:07;;;;;;;7.70;4.67;;;18.20;99.90;;;;;;4981124;28;20427;-70
2023/09/05 00:39:33;;;;;;;5.17;4.67;;;18.20;99.90;;;;;;4954671;28;20443;-70
2023/09/05 00:42:03;;;;;;;5.70;4.53;;;18.20;99.90;;;;;;4954658;29;20416;-70
2023/09/05 00:44:29;;;;;;;5.13;4.63;;;18.20;99.90;;;;;;4952925;29;20435;-69
2023/09/05 00:46:57;;;;;;;4.20;3.83;;;18.20;99.90;;;;;;4963608;28;20427;-70
2023/09/05 00:49:27;;;;;;;5.17;4.67;;;18.10;99.90;;;;;;4973256;28;20204;-70
2023/09/05 00:51:57;;;;;;;6.03;4.00;;;18.10;99.90;;;;;;4972176;28;20494;-69
2023/09/05 00:54:25;;;;;;;4.37;3.97;;;18.10;99.90;;;;;;4972475;28;20407;-70
2023/09/05 00:56:52;;;;;;;4.87;3.83;;;18.20;99.90;;;;;;4973541;28;20513;-70
2023/09/05 00:59:18;;;;;;;4.70;4.33;;;18.10;99.90;;;;;;4973237;28;20522;-72
2023/09/05 01:01:44;;;;;;;5.50;4.07;;;18.10;99.90;;;;;;4972852;28;20472;-70
2023/09/05 01:04:10;;;;;;;4.33;4.03;;;18.00;99.90;;;;;;4952080;28;20432;-69
2023/09/05 01:07:10;;;;;;;5.43;4.43;;;18.10;99.90;;;;;;4984661;28;20181;-70
2023/09/05 01:10:01;;;;;;;5.43;4.30;;;18.10;99.90;;;;;;4953917;29;20525;-70
2023/09/05 01:12:28;;;;;;;3.80;3.50;;;18.00;99.90;;;;;;4954553;28;20463;-70
2023/09/05 01:14:53;;;;;;;4.50;4.10;;;18.00;99.90;;;;;;4954317;29;20419;-71
2023/09/05 01:17:19;;;;;;;5.10;4.47;;;18.00;99.90;;;;;;4954863;28;20413;-70
2023/09/05 01:19:48;;;;;;;4.37;3.97;;;17.90;99.90;;;;;;4955899;28;20208;-70
2023/09/05 01:22:55;;;;;;;4.80;4.40;;;17.90;99.90;;;;;;4955499;28;20423;-70
2023/09/05 01:25:21;;;;;;;6.40;4.63;;;17.90;99.90;;;;;;4920272;29;21003;-71
2023/09/05 01:27:48;;;;;;;5.40;4.40;;;17.90;99.90;;;;;;4932034;29;20418;-71
2023/09/05 01:30:14;;;;;;;5.00;4.50;;;17.90;99.90;;;;;;4940057;28;20228;-69
2023/09/05 01:32:40;;;;;;;4.60;4.00;;;17.80;99.90;;;;;;4972378;28;20535;-70
2023/09/05 01:35:05;;;;;;;5.57;4.13;;;17.90;99.90;;;;;;4971328;28;20444;-70
2023/09/05 01:37:31;;;;;;;5.00;4.60;;;17.90;99.90;;;;;;4967754;28;20185;-70
2023/09/05 01:39:57;;;;;;;6.60;4.63;;;17.90;99.90;;;;;;4972428;28;20431;-70
2023/09/05 01:42:22;;;;;;;4.40;4.00;;;17.90;99.90;;;;;;4972529;28;20174;-70
2023/09/05 01:44:50;;;;;;;5.23;4.17;;;17.90;99.90;;;;;;4972747;28;20171;-69
2023/09/05 01:47:16;;;;;;;5.40;4.90;;;17.80;99.90;;;;;;4970835;28;20229;-69
2023/09/05 01:49:41;;;;;;;5.23;4.43;;;17.80;99.90;;;;;;4977459;28;20465;-70
2023/09/05 01:52:07;;;;;;;4.33;4.00;;;17.80;99.90;;;;;;4980991;28;20288;-69
2023/09/05 01:54:32;;;;;;;4.83;4.33;;;17.80;99.90;;;;;;4983924;28;20231;-70
2023/09/05 01:56:58;;;;;;;4.33;3.90;;;17.80;99.90;;;;;;4953841;28;20174;-69
2023/09/05 01:59:24;;;;;;;4.83;4.33;;;17.80;99.90;;;;;;4953349;29;20265;-71
2023/09/05 02:01:49;;;;;;;4.43;3.97;;;17.80;99.90;;;;;;4953916;28;20171;-73
2023/09/05 02:04:15;;;;;;;4.37;3.93;;;17.70;99.90;;;;;;4954474;28;20245;-70
2023/09/05 02:06:40;;;;;;;4.97;4.47;;;17.80;99.90;;;;;;4953937;29;20654;-70
2023/09/05 02:09:06;;;;;;;5.00;4.50;;;17.80;99.90;;;;;;4954580;29;20174;-70
2023/09/05 02:11:32;;;;;;;4.63;4.27;;;17.70;99.90;;;;;;4956609;28;20201;-72
2023/09/05 02:13:57;;;;;;;4.50;3.67;;;17.70;99.90;;;;;;4959169;28;20205;-71
2023/09/05 02:16:24;;;;;;;4.73;4.23;;;17.70;99.90;;;;;;4962707;29;20176;-70
2023/09/05 02:18:50;;;;;;;4.90;4.00;;;17.70;99.90;;;;;;4960605;28;20357;-71
2023/09/05 02:21:16;;;;;;;5.57;4.97;;;17.70;99.90;;;;;;4957315;28;20531;-69
2023/09/05 02:23:42;;;;;;;7.63;4.27;;;17.60;99.90;;;;;;4956858;29;20640;-70
2023/09/05 02:26:09;;;;;;;4.70;4.30;;;17.70;99.90;;;;;;4956393;29;20406;-69
2023/09/05 02:28:34;;;;;;;4.87;4.37;;;17.60;99.90;;;;;;4956930;28;20790;-70
2023/09/05 02:31:05;;;;;;;3.53;3.23;;;17.60;99.90;;;;;;4962105;28;20429;-71
2023/09/05 02:33:33;;;;;;;3.47;3.17;;;17.70;99.90;;;;;;4976010;28;20236;-70
2023/09/05 02:36:17;;;;;;;3.50;3.30;;;17.70;99.90;;;;;;4975631;28;20413;-70
2023/09/05 02:38:45;;;;;;;3.80;3.50;;;17.70;99.90;;;;;;4970480;28;20516;-71
2023/09/05 02:41:16;;;;;;;3.70;3.40;;;17.80;99.90;;;;;;4975352;28;20429;-71
2023/09/05 02:43:42;;;;;;;4.03;3.60;;;17.80;99.90;;;;;;4975503;28;20421;-70
2023/09/05 02:46:08;;;;;;;4.77;3.87;;;17.70;99.90;;;;;;4968880;28;20455;-70
2023/09/05 02:48:37;;;;;;;5.23;3.60;;;17.70;99.90;;;;;;4961244;28;20418;-70
2023/09/05 02:51:05;;;;;;;4.97;3.90;;;17.70;99.90;;;;;;4975216;28;21180;-70
2023/09/05 02:53:34;;;;;;;4.00;3.70;;;17.70;99.90;;;;;;4974492;28;20976;-70
2023/09/05 02:56:00;;;;;;;4.97;4.50;;;17.60;99.90;;;;;;4958934;28;20413;-71
2023/09/05 02:58:28;;;;;;;3.77;3.47;;;17.60;99.90;;;;;;4976260;28;20414;-71
2023/09/05 03:01:00;;;;;;;3.40;3.10;;;17.60;99.90;;;;;;4975502;28;20459;-71
2023/09/05 03:03:26;;;;;;;3.53;3.00;;;17.60;99.90;;;;;;4970531;28;20432;-70
2023/09/05 03:05:52;;;;;;;4.60;4.13;;;17.50;99.90;;;;;;4976979;28;20419;-70
2023/09/05 03:08:18;;;;;;;6.80;4.10;;;17.60;99.90;;;;;;4975238;28;20192;-70
2023/09/05 03:10:45;;;;;;;3.50;3.30;;;17.60;99.90;;;;;;4974059;28;20438;-70
2023/09/05 03:13:11;;;;;;;4.80;3.73;;;17.50;99.90;;;;;;4974788;28;20709;-70
2023/09/05 03:15:36;;;;;;;4.13;3.83;;;17.40;99.90;;;;;;4973648;28;20417;-70
2023/09/05 03:18:02;;;;;;;5.80;3.70;;;17.50;99.90;;;;;;4974990;28;20201;-71
2023/09/05 03:20:28;;;;;;;4.40;3.57;;;17.40;99.90;;;;;;4973734;28;20217;-70
2023/09/05 03:22:53;;;;;;;4.10;3.80;;;17.40;99.90;;;;;;4974630;28;20173;-70
2023/09/05 03:25:19;;;;;;;5.87;3.60;;;17.40;99.90;;;;;;4974526;28;20173;-70
2023/09/05 03:27:45;;;;;;;4.40;3.90;;;17.40;99.90;;;;;;4969857;28;20193;-70
2023/09/05 03:30:11;;;;;;;3.50;3.20;;;17.30;99.90;;;;;;4965491;28;20264;-70
2023/09/05 03:32:38;;;;;;;3.83;3.53;;;17.40;99.90;;;;;;4955516;29;20210;-71
2023/09/05 03:35:05;;;;;;;4.30;3.83;;;17.40;99.90;;;;;;4955634;28;21018;-72
2023/09/05 03:37:31;;;;;;;4.47;3.73;;;17.30;99.90;;;;;;4960920;28;20417;-71
2023/09/05 03:39:56;;;;;;;3.93;3.63;;;17.30;99.90;;;;;;4973910;28;20523;-71
2023/09/05 03:42:22;;;;;;;3.93;3.33;;;17.30;99.90;;;;;;4974495;28;20177;-72
2023/09/05 03:44:48;;;;;;;4.03;3.63;;;17.40;99.90;;;;;;4973724;28;20194;-72
2023/09/05 03:47:13;;;;;;;4.03;3.73;;;17.40;99.90;;;;;;4974933;28;20417;-72
2023/09/05 03:49:39;;;;;;;4.20;3.90;;;17.40;99.90;;;;;;4972956;28;20739;-71
2023/09/05 03:52:05;;;;;;;3.70;3.40;;;17.40;99.90;;;;;;4964692;28;20214;-72
2023/09/05 03:54:31;;;;;;;3.23;3.03;;;17.30;99.90;;;;;;4971389;28;20188;-72
2023/09/05 03:56:56;;;;;;;3.80;3.37;;;17.30;99.90;;;;;;4974064;28;20868;-72
2023/09/05 03:59:22;;;;;;;3.37;3.07;;;17.30;99.90;;;;;;4973881;28;20197;-71
2023/09/05 04:01:49;;;;;;;4.97;4.27;;;17.30;99.90;;;;;;4971981;28;20193;-72
2023/09/05 04:04:15;;;;;;;4.50;4.10;;;17.30;99.90;;;;;;4974294;28;20184;-72
2023/09/05 04:06:40;;;;;;;4.70;4.40;;;17.30;99.90;;;;;;4974073;28;20843;-72
2023/09/05 04:09:06;;;;;;;4.10;3.40;;;17.20;99.90;;;;;;4974005;28;20178;-71
2023/09/05 04:11:33;;;;;;;4.30;4.00;;;17.30;99.90;;;;;;4970165;28;22566;-72
2023/09/05 04:13:59;;;;;;;4.57;4.17;;;17.30;99.90;;;;;;4974178;28;20237;-72
2023/09/05 04:16:24;;;;;;;133.33;94.97;;;17.20;99.90;;;;;;4973498;28;20411;-72
2023/09/05 04:18:50;;;;;;;4.43;4.03;;;17.20;99.90;;;;;;4973470;28;20193;-73
2023/09/05 04:21:15;;;;;;;5.33;4.80;;;17.20;99.90;;;;;;4974475;28;20242;-73
2023/09/05 04:23:41;;;;;;;4.40;3.90;;;17.10;99.90;;;;;;4973956;28;20220;-70
2023/09/05 04:26:06;;;;;;;5.17;4.60;;;17.10;99.90;;;;;;4973818;28;20177;-70
2023/09/05 04:28:32;;;;;;;4.70;4.30;;;17.00;99.90;;;;;;4962624;28;20274;-71
2023/09/05 04:31:03;;;;;;;6.93;3.80;;;16.90;99.90;;;;;;4954540;29;20201;-72
2023/09/05 04:33:38;;;;;;;4.70;4.27;;;16.90;99.90;;;;;;4954363;28;20198;-74
2023/09/05 04:36:08;;;;;;;4.67;4.20;;;16.90;99.90;;;;;;4955519;28;20425;-73
2023/09/05 04:38:33;;;;;;;4.87;4.47;;;16.90;99.90;;;;;;4973077;28;20431;-74
2023/09/05 04:41:03;;;;;;;5.00;3.90;;;16.90;99.90;;;;;;4972193;28;20934;-74
2023/09/05 04:43:29;;;;;;;7.20;3.90;;;16.90;99.90;;;;;;4971426;28;20234;-73
2023/09/05 04:45:56;;;;;;;6.00;3.87;;;16.90;99.90;;;;;;4960733;28;20906;-73
2023/09/05 04:48:22;;;;;;;5.80;4.80;;;16.90;99.90;;;;;;4954048;28;20434;-73
2023/09/05 04:50:48;;;;;;;3.73;3.43;;;16.90;99.90;;;;;;4957137;28;20475;-74
2023/09/05 04:53:14;;;;;;;6.03;3.40;;;16.90;99.90;;;;;;4970114;28;20468;-74
2023/09/05 04:55:44;;;;;;;4.63;4.23;;;16.90;99.90;;;;;;4984669;28;20246;-72
2023/09/05 04:58:12;;;;;;;5.03;4.37;;;16.90;99.90;;;;;;4970055;28;20176;-72
2023/09/05 05:00:38;;;;;;;4.23;3.83;;;16.90;99.90;;;;;;4962802;28;20463;-73
2023/09/05 05:03:04;;;;;;;6.60;4.57;;;16.90;99.90;;;;;;4969085;28;20481;-74
2023/09/05 05:05:30;;;;;;;5.10;3.73;;;16.90;99.90;;;;;;4966983;28;20947;-74
2023/09/05 05:07:55;;;;;;;8.03;4.90;;;17.00;99.90;;;;;;4965178;28;20530;-73
2023/09/05 05:10:21;;;;;;;4.30;4.00;;;17.00;99.90;;;;;;4966067;28;20655;-74
2023/09/05 05:12:47;;;;;;;5.63;4.50;;;17.00;99.90;;;;;;4973234;28;20219;-74
2023/09/05 05:15:13;;;;;;;9.23;8.00;;;17.00;99.90;;;;;;4971444;28;20185;-72
2023/09/05 05:17:39;;;;;;;8.23;6.50;;;17.10;99.90;;;;;;4973330;28;20455;-72
2023/09/05 05:20:06;;;;;;;7.13;4.57;;;17.20;99.90;;;;;;4965815;28;20544;-72
2023/09/05 05:22:32;;;;;;;7.80;4.90;;;17.30;99.90;;;;;;4991230;28;20425;-72
2023/09/05 05:24:58;;;;;;;5.57;4.57;;;17.30;99.90;;;;;;4994718;28;20416;-72
2023/09/05 05:27:25;;;;;;;8.00;6.60;;;17.30;99.90;;;;;;4983811;28;20916;-72
2023/09/05 05:29:51;;;;;;;10.07;7.90;;;17.40;99.90;;;;;;4972614;28;20436;-71
2023/09/05 05:32:17;;;;;;;4.97;4.57;;;17.50;99.90;;;;;;4971484;28;20822;-71
2023/09/05 05:34:48;;;;;;;6.47;5.10;;;17.50;99.90;;;;;;4972813;28;20412;-70
2023/09/05 05:37:17;;;;;;;4.53;4.10;;;17.60;99.90;;;;;;4957525;28;20181;-72
2023/09/05 05:39:43;;;;;;;6.10;5.50;;;17.70;99.90;;;;;;4953507;29;20437;-72
2023/09/05 05:42:09;;;;;;;11.93;4.57;;;17.70;99.90;;;;;;4953747;28;20433;-70
2023/09/05 05:44:35;;;;;;;4.20;3.80;;;17.80;99.90;;;;;;4961330;28;20421;-70
2023/09/05 05:47:01;;;;;;;4.87;4.00;;;18.00;99.90;;;;;;4966328;28;20875;-70
2023/09/05 05:49:28;;;;;;;5.97;4.90;;;18.10;99.90;;;;;;4967218;28;20208;-70
2023/09/05 05:51:57;;;;;;;12.30;4.60;;;18.50;99.90;;;;;;4976153;28;20202;-70
2023/09/05 05:54:23;;;;;;;4.90;4.40;;;18.60;99.90;;;;;;4960670;28;20491;-70
2023/09/05 05:56:55;;;;;;;4.47;4.00;;;18.60;99.90;;;;;;4976370;28;20888;-70
2023/09/05 05:59:20;;;;;;;4.77;3.30;;;18.70;99.90;;;;;;4976121;28;20691;-70
2023/09/05 06:01:46;;;;;;;4.30;3.90;;;18.90;99.90;;;;;;4963318;28;20527;-70
2023/09/05 06:04:15;;;;;;;5.23;3.60;;;18.90;99.90;;;;;;4957110;29;20709;-70
2023/09/05 06:06:42;;;;;;;4.83;3.40;;;19.30;99.90;;;;;;4960339;28;20183;-70
2023/09/05 06:09:08;;;;;;;6.23;3.50;;;19.80;99.90;;;;;;4994063;28;20415;-70
2023/09/05 06:11:34;;;;;;;5.10;3.90;;;20.00;99.90;;;;;;4958843;28;20515;-70
2023/09/05 06:14:00;;;;;;;4.60;3.47;;;20.00;99.90;;;;;;4957201;29;20524;-71
2023/09/05 06:16:26;;;;;;;6.33;3.37;;;20.30;99.90;;;;;;4956827;28;20676;-70
2023/09/05 06:18:52;;;;;;;5.97;3.77;;;20.70;99.90;;;;;;4957130;28;20178;-70
2023/09/05 06:21:17;;;;;;;6.03;3.30;;;20.50;99.90;;;;;;4957201;28;20433;-71
2023/09/05 06:23:43;;;;;;;4.93;3.97;;;21.20;99.90;;;;;;4957334;28;20597;-71
2023/09/05 06:26:08;;;;;;;4.60;3.73;;;21.60;99.90;;;;;;4957351;29;20265;-71
2023/09/05 06:28:35;;;;;;;4.97;3.40;;;22.30;99.90;;;;;;4958022;28;20207;-71
2023/09/05 06:31:01;;;;;;;3.77;3.30;;;22.40;99.90;;;;;;4963470;28;20206;-70
2023/09/05 06:33:26;;;;;;;3.20;2.90;;;23.10;99.90;;;;;;4975588;28;20462;-70
2023/09/05 06:35:52;;;;;;;4.60;2.90;;;23.00;99.90;;;;;;4973987;28;20659;-70
2023/09/05 06:38:21;;;;;;;6.53;3.23;;;22.60;99.90;;;;;;4974921;28;20276;-70
2023/09/05 06:40:46;;;;;;;4.60;3.20;;;22.60;99.90;;;;;;4956459;28;20449;-70
2023/09/05 06:43:12;;;;;;;9.00;7.27;;;22.80;99.90;;;;;;4957794;28;20909;-71
2023/09/05 06:45:38;;;;;;;3.27;2.97;;;22.80;99.90;;;;;;4956024;28;20590;-70
2023/09/05 06:48:04;;;;;;;5.63;3.80;;;22.80;99.90;;;;;;4965733;28;20260;-71
2023/09/05 06:50:29;;;;;;;4.47;3.57;;;22.60;99.90;;;;;;4971096;28;20276;-71
2023/09/05 06:52:55;;;;;;;3.87;2.33;;;22.60;99.90;;;;;;4969239;28;20464;-71
2023/09/05 06:55:21;;;;;;;3.97;2.60;;;22.80;99.90;;;;;;4975546;28;20243;-70
2023/09/05 06:57:46;;;;;;;3.37;2.57;;;23.50;99.90;;;;;;4973703;28;20525;-70
2023/09/05 07:00:12;;;;;;;2.97;2.60;;;23.40;99.90;;;;;;4975171;28;20684;-71
2023/09/05 07:02:38;;;;;;;5.00;3.20;;;23.10;99.90;;;;;;4957176;28;20186;-71
2023/09/05 07:05:04;;;;;;;4.30;2.77;;;23.70;99.90;;;;;;4964947;28;20421;-70
2023/09/05 07:07:30;;;;;;;3.83;2.60;;;23.90;99.90;;;;;;4976760;28;20424;-70
2023/09/05 07:09:56;;;;;;;3.93;2.57;;;24.10;99.90;;;;;;4974754;28;20492;-70
2023/09/05 07:12:21;;;;;;;3.60;2.33;;;24.30;99.90;;;;;;4974944;28;20201;-72
2023/09/05 07:14:48;;;;;;;2.90;2.10;;;24.40;99.90;;;;;;4974549;28;20177;-73
2023/09/05 07:17:14;;;;;;;4.50;2.80;;;24.90;99.90;;;;;;4974737;28;20186;-72
2023/09/05 07:19:40;;;;;;;2.67;2.47;;;24.70;99.90;;;;;;4974177;28;20511;-74
2023/09/05 07:22:05;;;;;;;4.30;2.13;;;24.40;99.90;;;;;;4975198;28;20711;-73
2023/09/05 07:24:31;;;;;;;2.40;2.03;;;24.30;99.90;;;;;;4974847;28;20204;-73
2023/09/05 07:26:57;;;;;;;2.67;2.47;;;24.80;99.90;;;;;;4960757;28;20186;-74
2023/09/05 07:29:26;;;;;;;3.10;2.03;;;25.50;99.90;;;;;;4955556;28;20273;-73
2023/09/05 07:31:51;;;;;;;6.30;3.10;;;25.10;99.90;;;;;;4955641;29;20580;-74
2023/09/05 07:34:17;;;;;;;4.40;2.87;;;25.00;99.90;;;;;;4958332;28;20435;-73
2023/09/05 07:36:43;;;;;;;2.43;2.10;;;25.40;99.90;;;;;;4968133;28;20421;-73
2023/09/05 07:39:10;;;;;;;3.37;2.67;;;24.90;99.90;;;;;;4964617;28;20249;-73
2023/09/05 07:41:36;;;;;;;7.23;2.70;;;24.90;99.90;;;;;;4974411;28;20169;-73
2023/09/05 07:44:03;;;;;;;3.30;3.00;;;25.40;99.90;;;;;;4969731;28;20509;-73
2023/09/05 07:46:28;;;;;;;4.83;3.60;;;25.20;99.90;;;;;;4955138;28;20434;-73
2023/09/05 07:48:54;;;;;;;3.53;2.47;;;25.50;99.90;;;;;;4964533;28;20451;-73
2023/09/05 07:51:22;;;;;;;2.90;2.20;;;25.60;99.90;;;;;;4962300;28;20284;-74
2023/09/05 07:53:50;;;;;;;3.00;2.50;;;25.50;99.90;;;;;;4973202;28;20188;-73
2023/09/05 07:56:15;;;;;;;2.50;2.30;;;25.40;99.90;;;;;;4974560;28;20464;-74
2023/09/05 07:58:41;;;;;;;2.90;2.23;;;25.50;99.90;;;;;;4973942;28;20405;-74
2023/09/05 08:01:09;;;;;;;2.37;2.17;;;25.80;99.90;;;;;;4958632;28;20201;-74
2023/09/05 08:03:36;;;;;;;4.17;2.53;;;25.50;99.90;;;;;;4954802;28;20773;-74
2023/09/05 08:06:04;;;;;;;3.93;2.53;;;25.70;99.90;;;;;;4954768;29;20413;-73
2023/09/05 08:08:30;;;;;;;3.57;2.77;;;25.70;99.90;;;;;;4955476;28;20440;-73
2023/09/05 08:10:55;;;;;;;2.20;1.90;;;25.50;99.90;;;;;;4969030;28;20449;-74
2023/09/05 08:13:21;;;;;;;3.47;2.30;;;26.10;99.90;;;;;;4971408;28;20471;-71
2023/09/05 08:15:47;;;;;;;2.73;1.90;;;26.40;99.90;;;;;;4967069;28;20184;-73
2023/09/05 08:18:12;;;;;;;3.63;2.47;;;26.90;99.90;;;;;;4972739;28;20260;-72
2023/09/05 08:20:39;;;;;;;3.40;2.00;;;26.60;99.90;;;;;;4973954;28;20201;-73
2023/09/05 08:23:07;;;;;;;3.10;2.10;;;26.10;99.90;;;;;;4974165;28;20285;-72
2023/09/05 08:25:33;;;;;;;3.30;2.67;;;26.10;99.90;;;;;;4974173;28;20440;-73
2023/09/05 08:27:58;;;;;;;2.53;2.27;;;26.50;99.90;;;;;;4977962;28;20408;-73
2023/09/05 08:30:24;;;;;;;4.30;1.97;;;27.00;99.90;;;;;;4985622;28;20556;-72
2023/09/05 08:32:55;;;;;;;2.60;2.33;;;26.40;99.90;;;;;;4987955;28;20212;-72
2023/09/05 08:35:20;;;;;;;5.53;2.47;;;26.80;99.90;;;;;;4985754;28;20173;-71
2023/09/05 08:37:46;;;;;;;3.67;2.70;;;27.20;99.90;;;;;;5002559;28;20424;-72
2023/09/05 08:40:12;;;;;;;3.50;2.93;;;26.80;99.90;;;;;;4975734;28;20625;-72
2023/09/05 08:42:38;;;;;;;2.63;2.10;;;27.10;99.90;;;;;;4970736;28;20224;-73
2023/09/05 08:45:05;;;;;;;2.40;2.13;;;27.90;99.90;;;;;;4953994;29;20437;-72
2023/09/05 08:47:30;;;;;;;3.90;2.13;;;27.60;99.90;;;;;;4953787;28;20237;-73
2023/09/05 08:49:59;;;;;;;2.47;2.27;;;26.90;99.90;;;;;;4953972;28;20434;-73
2023/09/05 08:52:31;;;;;;;2.30;2.03;;;27.50;99.90;;;;;;4971591;28;20201;-74
2023/09/05 08:54:58;;;;;;;2.03;1.77;;;27.60;99.90;;;;;;4973415;28;20424;-73
2023/09/05 08:57:25;;;;;;;5.73;3.10;;;27.90;99.90;;;;;;4973363;28;20409;-73
2023/09/05 08:59:52;;;;;;;2.93;1.93;;;27.40;99.90;;;;;;4972433;28;20450;-73
2023/09/05 09:02:18;;;;;;;2.90;2.00;;;27.30;99.90;;;;;;4972997;28;20409;-72
2023/09/05 09:04:56;;;;;;;2.13;1.93;;;27.50;99.90;;;;;;4973098;28;20591;-73
2023/09/05 09:07:27;;;;;;;2.30;2.10;;;27.60;99.90;;;;;;4971591;28;20180;-73
2023/09/05 09:09:53;;;;;;;2.70;2.03;;;27.60;99.90;;;;;;4955355;28;20433;-73
2023/09/05 09:12:29;;;;;;;3.63;1.80;;;27.80;99.90;;;;;;4966488;28;20449;-73
2023/09/05 09:14:54;;;;;;;3.17;2.77;;;27.50;99.90;;;;;;4953750;29;20413;-74
2023/09/05 09:17:22;;;;;;;1.83;1.73;;;27.50;99.90;;;;;;4961340;28;20980;-74
2023/09/05 09:19:48;;;;;;;1.90;1.70;;;27.30;99.90;;;;;;4966893;28;20201;-72
2023/09/05 09:22:13;;;;;;;2.40;1.80;;;28.20;99.90;;;;;;4971684;28;20425;-73
2023/09/05 09:24:39;;;;;;;2.40;1.60;;;28.20;99.90;;;;;;4976512;28;20192;-73
2023/09/05 09:27:06;;;;;;;3.40;2.07;;;27.90;99.90;;;;;;4976562;28;20260;-72
2023/09/05 09:29:34;;;;;;;2.00;1.80;;;28.00;99.90;;;;;;4976704;28;20197;-72
2023/09/05 09:32:04;;;;;;;2.40;2.20;;;27.70;99.90;;;;;;4970419;28;20471;-73
2023/09/05 09:34:31;;;;;;;2.17;1.93;;;27.70;99.90;;;;;;4972088;28;21216;-73
2023/09/05 09:36:58;;;;;;;2.23;2.03;;;27.90;99.90;;;;;;4976410;28;20946;-71
2023/09/05 09:39:25;;;;;;;3.10;2.83;;;28.50;99.90;;;;;;4976237;28;20439;-74
2023/09/05 09:41:51;;;;;;;1.80;1.70;;;28.70;99.90;;;;;;4970808;28;20405;-71
2023/09/05 09:44:32;;;;;;;4.03;3.33;;;28.50;99.90;;;;;;4957237;28;20424;-73
2023/09/05 09:47:00;;;;;;;2.83;1.60;;;28.10;99.90;;;;;;4956872;28;20193;-72
2023/09/05 09:49:28;;;;;;;5.27;4.70;;;27.70;99.90;;;;;;4966058;28;20951;-72
2023/09/05 09:52:02;;;;;;;3.80;2.90;;;28.40;99.90;;;;;;4971461;28;20448;-72
2023/09/05 09:54:34;;;;;;;2.80;2.00;;;28.40;99.90;;;;;;4979362;28;20412;-72
2023/09/05 09:57:03;;;;;;;2.43;1.63;;;27.50;99.90;;;;;;4975609;28;20417;-72
2023/09/05 09:59:37;;;;;;;3.37;2.17;;;27.20;99.90;;;;;;4975946;28;20439;-72
2023/09/05 10:02:09;;;;;;;2.47;2.23;;;27.20;99.90;;;;;;4975291;28;20509;-72
2023/09/05 10:04:35;;;;;;;4.70;4.30;;;27.60;99.90;;;;;;4976459;28;20417;-73
2023/09/05 10:07:06;;;;;;;4.40;4.00;;;27.80;99.90;;;;;;4976188;28;20414;-73
2023/09/05 10:09:36;;;;;;;6.90;3.87;;;27.70;99.90;;;;;;4975211;28;20432;-72
2023/09/05 10:12:02;;;;;;;2.17;1.97;;;27.60;99.90;;;;;;4983507;28;20466;-73
2023/09/05 10:14:31;;;;;;;3.20;2.53;;;27.30;99.90;;;;;;4963855;28;20476;-72
2023/09/05 10:16:58;;;;;;;2.40;2.20;;;26.80;99.90;;;;;;4956913;28;20500;-72
2023/09/05 10:19:28;;;;;;;2.83;1.93;;;26.60;99.90;;;;;;4956395;28;20441;-72
2023/09/05 10:21:58;;;;;;;4.10;3.70;;;26.60;99.90;;;;;;4967407;28;20487;-71
2023/09/05 10:24:26;;;;;;;6.07;5.00;;;26.60;99.90;;;;;;4972746;28;20492;-72
2023/09/05 10:26:52;;;;;;;2.57;2.37;;;26.50;99.90;;;;;;4971628;28;20425;-71
2023/09/05 10:29:36;;;;;;;3.60;2.20;;;26.50;99.90;;;;;;4975771;28;20432;-72
2023/09/05 10:32:02;;;;;;;2.80;2.27;;;26.40;99.90;;;;;;4975584;28;20519;-72
2023/09/05 10:34:46;;;;;;;3.53;1.93;;;26.50;99.90;;;;;;4968933;28;20421;-72
2023/09/05 10:37:13;;;;;;;2.23;2.03;;;26.50;99.90;;;;;;4980150;28;20843;-73
2023/09/05 10:39:46;;;;;;;2.30;1.53;;;26.50;99.90;;;;;;4981789;28;20507;-71
2023/09/05 10:42:12;;;;;;;3.03;2.33;;;26.50;99.90;;;;;;4971920;28;20426;-74
2023/09/05 10:44:42;;;;;;;2.50;2.30;;;26.60;99.90;;;;;;4957226;28;20413;-72
2023/09/05 10:47:37;;;;;;;2.03;1.83;;;26.50;99.90;;;;;;4970166;28;20420;-72
2023/09/05 10:50:07;;;;;;;2.20;2.00;;;26.50;99.90;;;;;;4954246;28;20448;-73
2023/09/05 10:52:33;;;;;;;1.50;1.40;;;26.50;99.90;;;;;;4966151;28;20448;-73
2023/09/05 10:55:39;;;;;;;3.60;1.83;;;26.50;99.90;;;;;;4979743;28;20419;-72
2023/09/05 10:58:41;;;;;;;2.30;2.10;;;26.40;99.90;;;;;;4981169;28;20496;-72
2023/09/05 11:01:31;;;;;;;2.27;2.07;;;26.40;99.90;;;;;;4966363;28;20895;-72
2023/09/05 11:04:03;;;;;;;2.47;2.10;;;26.40;99.90;;;;;;4969144;28;20410;-72
2023/09/05 11:06:32;;;;;;;2.13;1.93;;;26.40;99.90;;;;;;4968297;28;20806;-72
2023/09/05 11:09:01;;;;;;;2.83;1.80;;;26.60;99.90;;;;;;4972002;28;20431;-71
2023/09/05 11:11:27;;;;;;;2.90;2.50;;;26.50;99.90;;;;;;4974394;28;20495;-71
2023/09/05 11:13:54;;;;;;;6.17;2.40;;;26.30;99.90;;;;;;4968836;28;20631;-72
2023/09/05 11:16:20;;;;;;;3.43;2.80;;;26.20;99.90;;;;;;4963373;28;20441;-70
2023/09/05 11:18:55;;;;;;;2.17;1.83;;;26.40;99.90;;;;;;4971824;28;20911;-72
2023/09/05 11:21:25;;;;;;;3.50;2.30;;;26.40;99.90;;;;;;4970386;28;20192;-72
2023/09/05 11:23:53;;;;;;;2.67;2.00;;;26.50;99.90;;;;;;4965282;28;20504;-71
2023/09/05 11:26:19;;;;;;;2.80;2.20;;;26.40;99.90;;;;;;4969922;28;20446;-71
2023/09/05 11:28:48;;;;;;;2.10;1.70;;;26.50;99.90;;;;;;4972812;28;20439;-72
2023/09/05 11:31:15;;;;;;;3.00;2.10;;;26.60;99.90;;;;;;4960948;28;20275;-71
2023/09/05 11:33:41;;;;;;;2.17;1.87;;;26.60;99.90;;;;;;4969843;28;20504;-70
2023/09/05 11:36:08;;;;;;;1.93;1.80;;;26.50;99.90;;;;;;4971511;28;20481;-71
2023/09/05 11:38:48;;;;;;;1.97;1.70;;;26.40;99.90;;;;;;4973488;28;20440;-74
2023/09/05 11:41:15;;;;;;;2.10;1.90;;;26.40;99.90;;;;;;4972267;28;20445;-72
2023/09/05 11:43:48;;;;;;;2.13;1.87;;;26.60;99.90;;;;;;4972258;28;20824;-72
2023/09/05 11:46:16;;;;;;;1.97;1.70;;;26.80;99.90;;;;;;4968787;28;20471;-72
2023/09/05 11:48:46;;;;;;;2.23;2.03;;;26.90;99.90;;;;;;4963313;28;20448;-72
2023/09/05 11:51:14;;;;;;;2.30;2.07;;;26.90;99.90;;;;;;4970146;28;20829;-71
2023/09/05 11:53:42;;;;;;;3.03;2.50;;;26.90;99.90;;;;;;4971703;28;20471;-72
2023/09/05 11:56:08;;;;;;;2.70;1.50;;;27.00;99.90;;;;;;4972035;28;20441;-71
2023/09/05 11:58:34;;;;;;;3.90;2.40;;;27.00;99.90;;;;;;4966881;28;20428;-71
2023/09/05 12:01:00;;;;;;;2.03;1.90;;;27.00;99.90;;;;;;4974549;28;20461;-71
2023/09/05 12:03:28;;;;;;;1.93;1.63;;;26.90;99.90;;;;;;4974282;28;20436;-71
2023/09/05 12:05:54;;;;;;;1.50;1.40;;;26.80;99.90;;;;;;4974448;28;20779;-71
2023/09/05 12:08:21;;;;;;;2.07;1.80;;;27.10;99.90;;;;;;4970863;28;20438;-71
2023/09/05 12:10:55;;;;;;;1.73;1.57;;;27.20;99.90;;;;;;4960193;28;20450;-71
2023/09/05 12:13:37;;;;;;;3.23;2.20;;;27.20;99.90;;;;;;4964715;28;20534;-72
2023/09/05 12:16:05;;;;;;;2.03;1.90;;;27.20;99.90;;;;;;4961517;28;20437;-72
2023/09/05 12:18:31;;;;;;;2.93;1.77;;;27.20;99.90;;;;;;4967096;28;21010;-71
2023/09/05 12:21:00;;;;;;;1.37;1.27;;;27.00;99.90;;;;;;4970616;28;20570;-70
2023/09/05 12:23:27;;;;;;;1.50;1.40;;;27.00;99.90;;;;;;4968695;28;20572;-72
2023/09/05 12:25:53;;;;;;;2.43;1.90;;;26.90;99.90;;;;;;4973880;28;20417;-72
2023/09/05 12:28:22;;;;;;;1.87;1.70;;;26.90;99.90;;;;;;4970415;28;20519;-72
2023/09/05 12:31:05;;;;;;;1.63;1.50;;;27.10;99.90;;;;;;4967374;28;20473;-71
2023/09/05 12:33:31;;;;;;;2.10;1.50;;;27.10;99.90;;;;;;4967769;28;20967;-72
2023/09/05 12:35:57;;;;;;;1.57;1.47;;;27.20;99.90;;;;;;4972474;28;20455;-72
2023/09/05 12:38:23;;;;;;;1.77;1.67;;;27.10;99.90;;;;;;4966278;28;20808;-71
2023/09/05 12:40:48;;;;;;;1.57;1.40;;;27.00;99.90;;;;;;4974017;28;20194;-72
2023/09/05 12:43:16;;;;;;;1.60;1.50;;;26.90;99.90;;;;;;4973392;28;20198;-72
2023/09/05 12:45:42;;;;;;;1.50;1.40;;;27.20;99.90;;;;;;4974202;28;20189;-72
2023/09/05 12:48:08;;;;;;;1.60;1.50;;;27.30;99.90;;;;;;4964401;28;20437;-72